Pahoa, HI

1:42 AM HST on July 07, 2015 (GMT -1000)
Hawaiian Shores Rec. (Malolo St.) | | Change Station
CLOSE
Current Station
Personal Weather Station
Location: Pahoa, HI
Elevation: 217 ft
Nearby Weather Stations
Active Advisory: High Surf Advisory

Elev 217 ft 19.54 °N, 154.90 °W | Updated 13 seconds ago

Rain
Rain
72.1 °F
Feels Like 72.1 °F
N
1.1
Wind Variable Wind from WSW
Gusts 2.5 mph

Today
High -- | Low -- °F
--% Chance of Precip.
Yesterday
High -- | Low -- °F
Precip. -- in
5:46 AM 7:02 PM
Waning Gibbous, 65% visible
Pressure 29.99 in
Visibility 10.0 miles
Clouds Scattered Clouds 2700 ft
Mostly Cloudy 10000 ft
Dew Point 70 °F
Humidity 94%
Rainfall 0.11 in
Snow Depth Not available.
UV 0.0 out of 12
Pollen Not available.
Air Quality Not available.
Flu Activity Not available.
METAR PHTO 071053Z 00000KT 10SM SCT027 BKN100 23/20 A2999 RMK AO2 SLP155 T02280200

More Conditions Fewer Conditions

Pressure 29.99 in
Visibility 10.0 miles
Clouds Scattered Clouds 2700 ft
Mostly Cloudy 10000 ft
Dew Point 70 °F
Humidity 94%
Rainfall 0.11 in
Snow Depth Not available.
UV 0.0 out of 12
Pollen Not available.
Air Quality Not available.
Flu Activity Not available.
METAR PHTO 071053Z 00000KT 10SM SCT027 BKN100 23/20 A2999 RMK AO2 SLP155 T02280200

More Conditions Fewer Conditions

10-Day Weather Forecast

×

Almanac

Astronomy

Jul. 07, 2015 Rise Set
Actual Time
Civil Twilight
Nautical Twilight
Astronomical Twilight
Moon
Length of Visible Light
Length of Day
Tomorrow will be .
, % of the Moon is Illuminated

Today's Extremes

State Highs State Lows

Community

WunderPhotos

Upload Photos

1,835,770 photos uploaded!

WunderBlogs® & News

Nearby

Air Quality

  Air Quality AQ Index Pollutant
Not available.

Snow Depth

Station Depth Elevation

Earthquake Activity

City Distance Mag. Time & Date
Minimum magnitude displayed is 2.5.

Coastal Water Temperatures

Place Temperature

Stations

Nearby Weather Stations

Station Location Temp. Windchill Dew Point Humidity Wind Precip. Elev Updated Type
                   
High Surf Advisory
Statement as of 3:32 PM HST on July 06, 2015

... High surf advisory in effect until 6 PM HST Wednesday...

The National Weather Service in Honolulu has issued a high surf
advisory... which is in effect until 6 PM HST Wednesday.

* Surf... along south facing shores... 6 to 9 feet through the
evening and rising to 7 to 10 feet tonight and Tuesday.

* Timing... rising through tonight... peaking Tuesday... and
remaining elevated into Wednesday.

* Impacts... moderate... expect strong breaking waves... shore
break... and strong longshore and rip currents making swimming
difficult and dangerous.


Precautionary/preparedness actions...

Beachgoers... swimmers... and surfers should heed all advice given
by ocean safety officials and exercise caution. Boaters should
expect recreational surfers and utilizing Harbor channels to
access surfing areas.